sensor_id;sensor_type;location;lat;lon;timestamp;P1;durP1;ratioP1;P2;durP2;ratioP2
27558;SDS011;15002;52.028;5.670;2022-08-19T00:01:48;9.60;;;8.60;;
27558;SDS011;15002;52.028;5.670;2022-08-19T00:04:16;14.57;;;8.35;;
27558;SDS011;15002;52.028;5.670;2022-08-19T00:06:43;9.32;;;7.80;;
27558;SDS011;15002;52.028;5.670;2022-08-19T00:09:11;8.85;;;8.00;;
27558;SDS011;15002;52.028;5.670;2022-08-19T00:11:39;8.50;;;7.55;;
27558;SDS011;15002;52.028;5.670;2022-08-19T00:14:06;8.65;;;7.80;;
27558;SDS011;15002;52.028;5.670;2022-08-19T00:16:34;10.02;;;8.18;;
27558;SDS011;15002;52.028;5.670;2022-08-19T00:19:01;8.20;;;7.45;;
27558;SDS011;15002;52.028;5.670;2022-08-19T00:21:28;9.52;;;8.55;;
27558;SDS011;15002;52.028;5.670;2022-08-19T00:23:54;11.20;;;8.05;;
27558;SDS011;15002;52.028;5.670;2022-08-19T00:26:23;8.82;;;6.95;;
27558;SDS011;15002;52.028;5.670;2022-08-19T00:28:49;12.38;;;8.15;;
27558;SDS011;15002;52.028;5.670;2022-08-19T00:31:15;9.07;;;8.05;;
27558;SDS011;15002;52.028;5.670;2022-08-19T00:33:42;9.65;;;8.07;;
27558;SDS011;15002;52.028;5.670;2022-08-19T00:36:08;11.00;;;8.23;;
27558;SDS011;15002;52.028;5.670;2022-08-19T00:38:37;9.18;;;8.23;;
27558;SDS011;15002;52.028;5.670;2022-08-19T00:41:08;10.82;;;8.25;;
27558;SDS011;15002;52.028;5.670;2022-08-19T00:43:39;12.02;;;8.75;;
27558;SDS011;15002;52.028;5.670;2022-08-19T00:46:06;10.43;;;8.35;;
27558;SDS011;15002;52.028;5.670;2022-08-19T00:48:32;9.70;;;8.80;;
27558;SDS011;15002;52.028;5.670;2022-08-19T00:50:59;10.10;;;9.10;;
27558;SDS011;15002;52.028;5.670;2022-08-19T00:53:26;10.35;;;9.15;;
27558;SDS011;15002;52.028;5.670;2022-08-19T00:55:54;14.32;;;9.85;;
27558;SDS011;15002;52.028;5.670;2022-08-19T00:58:24;10.45;;;9.35;;
27558;SDS011;15002;52.028;5.670;2022-08-19T01:00:53;10.98;;;9.98;;
27558;SDS011;15002;52.028;5.670;2022-08-19T01:03:20;11.40;;;9.93;;
27558;SDS011;15002;52.028;5.670;2022-08-19T01:05:46;12.23;;;10.93;;
27558;SDS011;15002;52.028;5.670;2022-08-19T01:08:14;14.40;;;10.23;;
27558;SDS011;15002;52.028;5.670;2022-08-19T01:10:42;10.90;;;9.82;;
27558;SDS011;15002;52.028;5.670;2022-08-19T01:13:13;12.00;;;9.98;;
27558;SDS011;15002;52.028;5.670;2022-08-19T01:15:41;12.00;;;10.02;;
27558;SDS011;15002;52.028;5.670;2022-08-19T01:18:13;11.23;;;10.02;;
27558;SDS011;15002;52.028;5.670;2022-08-19T01:20:41;12.88;;;9.65;;
27558;SDS011;15002;52.028;5.670;2022-08-19T01:23:08;9.63;;;8.57;;
27558;SDS011;15002;52.028;5.670;2022-08-19T01:25:47;10.40;;;9.40;;
27558;SDS011;15002;52.028;5.670;2022-08-19T01:28:22;10.07;;;8.88;;
27558;SDS011;15002;52.028;5.670;2022-08-19T01:30:52;10.48;;;9.05;;
27558;SDS011;15002;52.028;5.670;2022-08-19T01:33:19;9.35;;;8.43;;
27558;SDS011;15002;52.028;5.670;2022-08-19T01:35:45;9.50;;;8.50;;
27558;SDS011;15002;52.028;5.670;2022-08-19T01:38:20;9.30;;;8.30;;
27558;SDS011;15002;52.028;5.670;2022-08-19T01:40:48;9.38;;;7.88;;
27558;SDS011;15002;52.028;5.670;2022-08-19T01:43:14;9.73;;;8.65;;
27558;SDS011;15002;52.028;5.670;2022-08-19T01:45:40;9.98;;;8.98;;
27558;SDS011;15002;52.028;5.670;2022-08-19T01:48:09;11.13;;;8.90;;
27558;SDS011;15002;52.028;5.670;2022-08-19T01:50:36;12.18;;;9.50;;
27558;SDS011;15002;52.028;5.670;2022-08-19T01:53:02;9.27;;;8.38;;
27558;SDS011;15002;52.028;5.670;2022-08-19T01:55:30;10.63;;;8.98;;
27558;SDS011;15002;52.028;5.670;2022-08-19T01:57:57;11.13;;;9.95;;
27558;SDS011;15002;52.028;5.670;2022-08-19T02:00:25;11.45;;;8.93;;
27558;SDS011;15002;52.028;5.670;2022-08-19T02:02:53;12.52;;;9.85;;
27558;SDS011;15002;52.028;5.670;2022-08-19T02:05:19;13.23;;;10.50;;
27558;SDS011;15002;52.028;5.670;2022-08-19T02:07:46;12.93;;;10.18;;
27558;SDS011;15002;52.028;5.670;2022-08-19T02:10:13;16.25;;;10.93;;
27558;SDS011;15002;52.028;5.670;2022-08-19T02:12:46;12.05;;;10.65;;
27558;SDS011;15002;52.028;5.670;2022-08-19T02:15:14;13.88;;;11.32;;
27558;SDS011;15002;52.028;5.670;2022-08-19T02:17:40;14.70;;;10.73;;
27558;SDS011;15002;52.028;5.670;2022-08-19T02:20:06;12.68;;;11.13;;
27558;SDS011;15002;52.028;5.670;2022-08-19T02:22:33;16.95;;;12.48;;
27558;SDS011;15002;52.028;5.670;2022-08-19T02:24:58;14.52;;;12.80;;
27558;SDS011;15002;52.028;5.670;2022-08-19T02:27:24;17.17;;;14.30;;
27558;SDS011;15002;52.028;5.670;2022-08-19T02:29:51;19.98;;;14.63;;
27558;SDS011;15002;52.028;5.670;2022-08-19T02:32:17;21.13;;;14.90;;
27558;SDS011;15002;52.028;5.670;2022-08-19T02:34:46;16.55;;;13.43;;
27558;SDS011;15002;52.028;5.670;2022-08-19T02:37:13;19.52;;;14.10;;
27558;SDS011;15002;52.028;5.670;2022-08-19T02:39:57;21.20;;;14.18;;
27558;SDS011;15002;52.028;5.670;2022-08-19T02:42:23;17.83;;;14.43;;
27558;SDS011;15002;52.028;5.670;2022-08-19T02:44:51;19.33;;;14.57;;
27558;SDS011;15002;52.028;5.670;2022-08-19T02:47:20;16.85;;;13.48;;
27558;SDS011;15002;52.028;5.670;2022-08-19T02:49:46;16.45;;;14.50;;
27558;SDS011;15002;52.028;5.670;2022-08-19T02:52:14;16.35;;;14.23;;
27558;SDS011;15002;52.028;5.670;2022-08-19T02:54:41;15.90;;;13.82;;
27558;SDS011;15002;52.028;5.670;2022-08-19T02:57:07;15.65;;;13.98;;
27558;SDS011;15002;52.028;5.670;2022-08-19T02:59:33;14.90;;;13.02;;
27558;SDS011;15002;52.028;5.670;2022-08-19T03:01:58;18.33;;;13.68;;
27558;SDS011;15002;52.028;5.670;2022-08-19T03:04:24;15.95;;;13.45;;
27558;SDS011;15002;52.028;5.670;2022-08-19T03:06:50;18.65;;;13.90;;
27558;SDS011;15002;52.028;5.670;2022-08-19T03:09:17;22.33;;;13.40;;
27558;SDS011;15002;52.028;5.670;2022-08-19T03:11:44;16.33;;;13.13;;
27558;SDS011;15002;52.028;5.670;2022-08-19T03:14:10;17.67;;;14.52;;
27558;SDS011;15002;52.028;5.670;2022-08-19T03:16:44;16.38;;;13.18;;
27558;SDS011;15002;52.028;5.670;2022-08-19T03:19:15;16.75;;;13.73;;
27558;SDS011;15002;52.028;5.670;2022-08-19T03:21:43;15.57;;;13.15;;
27558;SDS011;15002;52.028;5.670;2022-08-19T03:24:09;17.95;;;12.50;;
27558;SDS011;15002;52.028;5.670;2022-08-19T03:26:43;14.23;;;12.20;;
27558;SDS011;15002;52.028;5.670;2022-08-19T03:29:11;15.82;;;12.75;;
27558;SDS011;15002;52.028;5.670;2022-08-19T03:31:38;16.73;;;12.20;;
27558;SDS011;15002;52.028;5.670;2022-08-19T03:34:05;15.95;;;11.88;;
27558;SDS011;15002;52.028;5.670;2022-08-19T03:36:30;14.15;;;11.88;;
27558;SDS011;15002;52.028;5.670;2022-08-19T03:38:57;14.57;;;12.35;;
27558;SDS011;15002;52.028;5.670;2022-08-19T03:41:26;13.25;;;11.50;;
27558;SDS011;15002;52.028;5.670;2022-08-19T03:43:55;15.10;;;11.93;;
27558;SDS011;15002;52.028;5.670;2022-08-19T03:46:22;13.48;;;11.32;;
27558;SDS011;15002;52.028;5.670;2022-08-19T03:48:52;14.25;;;11.95;;
27558;SDS011;15002;52.028;5.670;2022-08-19T03:51:23;15.85;;;12.00;;
27558;SDS011;15002;52.028;5.670;2022-08-19T03:53:49;18.42;;;12.68;;
27558;SDS011;15002;52.028;5.670;2022-08-19T03:56:15;14.00;;;11.80;;
27558;SDS011;15002;52.028;5.670;2022-08-19T03:58:41;13.80;;;12.13;;
27558;SDS011;15002;52.028;5.670;2022-08-19T04:01:08;14.43;;;11.48;;
27558;SDS011;15002;52.028;5.670;2022-08-19T04:03:36;13.95;;;11.45;;
27558;SDS011;15002;52.028;5.670;2022-08-19T04:06:12;15.98;;;11.68;;
27558;SDS011;15002;52.028;5.670;2022-08-19T04:08:46;14.10;;;12.60;;
27558;SDS011;15002;52.028;5.670;2022-08-19T04:11:16;15.55;;;12.15;;
27558;SDS011;15002;52.028;5.670;2022-08-19T04:16:12;16.63;;;11.82;;
27558;SDS011;15002;52.028;5.670;2022-08-19T04:18:38;15.10;;;12.60;;
27558;SDS011;15002;52.028;5.670;2022-08-19T04:21:05;13.57;;;11.77;;
27558;SDS011;15002;52.028;5.670;2022-08-19T04:23:32;15.25;;;12.57;;
27558;SDS011;15002;52.028;5.670;2022-08-19T04:26:01;13.60;;;12.18;;
27558;SDS011;15002;52.028;5.670;2022-08-19T04:28:27;17.50;;;13.40;;
27558;SDS011;15002;52.028;5.670;2022-08-19T04:30:54;15.73;;;13.05;;
27558;SDS011;15002;52.028;5.670;2022-08-19T04:33:21;16.55;;;12.88;;
27558;SDS011;15002;52.028;5.670;2022-08-19T04:35:50;16.65;;;13.00;;
27558;SDS011;15002;52.028;5.670;2022-08-19T04:38:20;16.55;;;13.50;;
27558;SDS011;15002;52.028;5.670;2022-08-19T04:40:48;20.10;;;14.18;;
27558;SDS011;15002;52.028;5.670;2022-08-19T04:43:34;19.38;;;15.40;;
27558;SDS011;15002;52.028;5.670;2022-08-19T04:46:09;18.83;;;14.55;;
27558;SDS011;15002;52.028;5.670;2022-08-19T04:48:36;21.70;;;15.40;;
27558;SDS011;15002;52.028;5.670;2022-08-19T04:51:06;21.38;;;15.00;;
27558;SDS011;15002;52.028;5.670;2022-08-19T04:53:33;22.70;;;13.90;;
27558;SDS011;15002;52.028;5.670;2022-08-19T04:56:03;23.08;;;13.73;;
27558;SDS011;15002;52.028;5.670;2022-08-19T04:58:32;18.23;;;13.98;;
27558;SDS011;15002;52.028;5.670;2022-08-19T05:00:58;18.73;;;13.90;;
27558;SDS011;15002;52.028;5.670;2022-08-19T05:03:25;20.25;;;13.77;;
27558;SDS011;15002;52.028;5.670;2022-08-19T05:05:50;19.42;;;12.68;;
27558;SDS011;15002;52.028;5.670;2022-08-19T05:08:17;19.05;;;14.30;;
27558;SDS011;15002;52.028;5.670;2022-08-19T05:10:47;20.10;;;13.30;;
27558;SDS011;15002;52.028;5.670;2022-08-19T05:13:14;16.65;;;13.20;;
27558;SDS011;15002;52.028;5.670;2022-08-19T05:15:41;19.50;;;14.82;;
27558;SDS011;15002;52.028;5.670;2022-08-19T05:18:07;20.10;;;14.48;;
27558;SDS011;15002;52.028;5.670;2022-08-19T05:20:52;22.77;;;14.55;;
27558;SDS011;15002;52.028;5.670;2022-08-19T05:23:36;24.10;;;14.15;;
27558;SDS011;15002;52.028;5.670;2022-08-19T05:26:01;20.80;;;13.68;;
27558;SDS011;15002;52.028;5.670;2022-08-19T05:28:27;24.58;;;14.77;;
27558;SDS011;15002;52.028;5.670;2022-08-19T05:30:53;24.92;;;14.55;;
27558;SDS011;15002;52.028;5.670;2022-08-19T05:33:20;25.90;;;15.68;;
27558;SDS011;15002;52.028;5.670;2022-08-19T05:35:47;25.92;;;14.63;;
27558;SDS011;15002;52.028;5.670;2022-08-19T05:38:14;32.42;;;16.02;;
27558;SDS011;15002;52.028;5.670;2022-08-19T05:40:41;28.02;;;15.43;;
27558;SDS011;15002;52.028;5.670;2022-08-19T05:43:10;25.92;;;16.52;;
27558;SDS011;15002;52.028;5.670;2022-08-19T05:45:39;20.52;;;15.43;;
27558;SDS011;15002;52.028;5.670;2022-08-19T05:48:06;19.27;;;14.93;;
27558;SDS011;15002;52.028;5.670;2022-08-19T05:50:35;18.02;;;15.05;;
27558;SDS011;15002;52.028;5.670;2022-08-19T05:53:02;20.17;;;14.75;;
27558;SDS011;15002;52.028;5.670;2022-08-19T05:55:28;20.75;;;15.75;;
27558;SDS011;15002;52.028;5.670;2022-08-19T05:57:53;23.85;;;15.77;;
27558;SDS011;15002;52.028;5.670;2022-08-19T06:00:19;19.50;;;15.70;;
27558;SDS011;15002;52.028;5.670;2022-08-19T06:02:45;18.92;;;15.40;;
27558;SDS011;15002;52.028;5.670;2022-08-19T06:05:10;19.33;;;15.55;;
27558;SDS011;15002;52.028;5.670;2022-08-19T06:07:37;22.23;;;16.58;;
27558;SDS011;15002;52.028;5.670;2022-08-19T06:10:08;24.58;;;18.48;;
27558;SDS011;15002;52.028;5.670;2022-08-19T06:12:35;22.48;;;16.75;;
27558;SDS011;15002;52.028;5.670;2022-08-19T06:15:05;29.17;;;20.48;;
27558;SDS011;15002;52.028;5.670;2022-08-19T06:17:33;23.83;;;18.58;;
27558;SDS011;15002;52.028;5.670;2022-08-19T06:20:00;30.88;;;21.25;;
27558;SDS011;15002;52.028;5.670;2022-08-19T06:22:26;27.27;;;20.65;;
27558;SDS011;15002;52.028;5.670;2022-08-19T06:24:53;29.88;;;21.85;;
27558;SDS011;15002;52.028;5.670;2022-08-19T06:27:19;26.83;;;20.13;;
27558;SDS011;15002;52.028;5.670;2022-08-19T06:29:46;30.83;;;20.70;;
27558;SDS011;15002;52.028;5.670;2022-08-19T06:32:12;32.08;;;22.20;;
27558;SDS011;15002;52.028;5.670;2022-08-19T06:34:40;37.50;;;24.15;;
27558;SDS011;15002;52.028;5.670;2022-08-19T06:37:06;39.05;;;26.00;;
27558;SDS011;15002;52.028;5.670;2022-08-19T06:39:32;46.70;;;29.67;;
27558;SDS011;15002;52.028;5.670;2022-08-19T06:42:03;39.58;;;26.75;;
27558;SDS011;15002;52.028;5.670;2022-08-19T06:44:34;45.73;;;27.23;;
27558;SDS011;15002;52.028;5.670;2022-08-19T06:47:01;48.28;;;29.30;;
27558;SDS011;15002;52.028;5.670;2022-08-19T06:49:29;55.28;;;32.95;;
27558;SDS011;15002;52.028;5.670;2022-08-19T06:51:56;57.03;;;32.05;;
27558;SDS011;15002;52.028;5.670;2022-08-19T06:54:23;67.55;;;38.15;;
27558;SDS011;15002;52.028;5.670;2022-08-19T06:56:49;63.53;;;36.55;;
27558;SDS011;15002;52.028;5.670;2022-08-19T06:59:16;69.80;;;38.25;;
27558;SDS011;15002;52.028;5.670;2022-08-19T07:01:44;66.10;;;36.53;;
27558;SDS011;15002;52.028;5.670;2022-08-19T07:04:12;67.82;;;37.95;;
27558;SDS011;15002;52.028;5.670;2022-08-19T07:06:40;72.47;;;39.05;;
27558;SDS011;15002;52.028;5.670;2022-08-19T07:09:07;78.32;;;41.45;;
27558;SDS011;15002;52.028;5.670;2022-08-19T07:11:33;77.88;;;39.80;;
27558;SDS011;15002;52.028;5.670;2022-08-19T07:14:00;78.80;;;39.83;;
27558;SDS011;15002;52.028;5.670;2022-08-19T07:16:26;77.05;;;40.88;;
27558;SDS011;15002;52.028;5.670;2022-08-19T07:18:52;79.13;;;42.70;;
27558;SDS011;15002;52.028;5.670;2022-08-19T07:21:20;73.90;;;38.50;;
27558;SDS011;15002;52.028;5.670;2022-08-19T07:23:49;71.97;;;37.08;;
27558;SDS011;15002;52.028;5.670;2022-08-19T07:28:44;76.20;;;41.10;;
27558;SDS011;15002;52.028;5.670;2022-08-19T07:31:12;73.03;;;40.85;;
27558;SDS011;15002;52.028;5.670;2022-08-19T07:33:42;74.40;;;43.83;;
27558;SDS011;15002;52.028;5.670;2022-08-19T07:36:08;82.55;;;45.28;;
27558;SDS011;15002;52.028;5.670;2022-08-19T07:38:38;82.22;;;45.20;;
27558;SDS011;15002;52.028;5.670;2022-08-19T07:41:06;77.28;;;44.00;;
27558;SDS011;15002;52.028;5.670;2022-08-19T07:43:32;83.25;;;46.78;;
27558;SDS011;15002;52.028;5.670;2022-08-19T07:45:58;77.10;;;45.15;;
27558;SDS011;15002;52.028;5.670;2022-08-19T07:48:24;75.93;;;43.20;;
27558;SDS011;15002;52.028;5.670;2022-08-19T07:50:55;76.43;;;45.60;;
27558;SDS011;15002;52.028;5.670;2022-08-19T07:53:23;74.63;;;44.20;;
27558;SDS011;15002;52.028;5.670;2022-08-19T07:55:49;74.47;;;45.30;;
27558;SDS011;15002;52.028;5.670;2022-08-19T07:58:16;71.95;;;40.47;;
27558;SDS011;15002;52.028;5.670;2022-08-19T08:00:45;71.47;;;42.50;;
27558;SDS011;15002;52.028;5.670;2022-08-19T08:03:13;67.63;;;41.00;;
27558;SDS011;15002;52.028;5.670;2022-08-19T08:05:39;71.57;;;41.78;;
27558;SDS011;15002;52.028;5.670;2022-08-19T08:08:23;71.15;;;42.10;;
27558;SDS011;15002;52.028;5.670;2022-08-19T08:11:08;65.60;;;40.42;;
27558;SDS011;15002;52.028;5.670;2022-08-19T08:13:34;62.15;;;40.38;;
27558;SDS011;15002;52.028;5.670;2022-08-19T08:16:00;58.30;;;38.92;;
27558;SDS011;15002;52.028;5.670;2022-08-19T08:18:27;59.22;;;37.40;;
27558;SDS011;15002;52.028;5.670;2022-08-19T08:20:52;54.15;;;37.22;;
27558;SDS011;15002;52.028;5.670;2022-08-19T08:23:18;56.35;;;36.60;;
27558;SDS011;15002;52.028;5.670;2022-08-19T08:25:54;55.00;;;37.22;;
27558;SDS011;15002;52.028;5.670;2022-08-19T08:28:21;53.75;;;36.28;;
27558;SDS011;15002;52.028;5.670;2022-08-19T08:30:48;58.20;;;36.88;;
27558;SDS011;15002;52.028;5.670;2022-08-19T08:33:21;51.25;;;35.95;;
27558;SDS011;15002;52.028;5.670;2022-08-19T08:35:48;51.40;;;35.53;;
27558;SDS011;15002;52.028;5.670;2022-08-19T08:38:14;52.63;;;34.58;;
27558;SDS011;15002;52.028;5.670;2022-08-19T08:43:40;46.45;;;32.03;;
27558;SDS011;15002;52.028;5.670;2022-08-19T08:46:05;54.70;;;32.63;;
27558;SDS011;15002;52.028;5.670;2022-08-19T08:51:15;51.08;;;33.08;;
27558;SDS011;15002;52.028;5.670;2022-08-19T08:53:47;63.30;;;37.03;;
27558;SDS011;15002;52.028;5.670;2022-08-19T08:56:16;55.20;;;34.63;;
27558;SDS011;15002;52.028;5.670;2022-08-19T08:58:48;45.42;;;31.00;;
27558;SDS011;15002;52.028;5.670;2022-08-19T09:01:30;46.80;;;29.88;;
27558;SDS011;15002;52.028;5.670;2022-08-19T09:03:56;46.60;;;29.02;;
27558;SDS011;15002;52.028;5.670;2022-08-19T09:06:38;41.60;;;27.95;;
27558;SDS011;15002;52.028;5.670;2022-08-19T09:14:49;34.70;;;24.67;;
27558;SDS011;15002;52.028;5.670;2022-08-19T09:17:16;39.90;;;27.30;;
27558;SDS011;15002;52.028;5.670;2022-08-19T09:22:32;35.65;;;24.48;;
27558;SDS011;15002;52.028;5.670;2022-08-19T09:24:59;35.40;;;23.10;;
27558;SDS011;15002;52.028;5.670;2022-08-19T09:27:25;37.60;;;24.48;;
27558;SDS011;15002;52.028;5.670;2022-08-19T09:29:52;34.47;;;24.27;;
27558;SDS011;15002;52.028;5.670;2022-08-19T09:32:19;28.25;;;21.15;;
27558;SDS011;15002;52.028;5.670;2022-08-19T09:34:45;33.70;;;23.65;;
27558;SDS011;15002;52.028;5.670;2022-08-19T09:37:11;37.63;;;24.38;;
27558;SDS011;15002;52.028;5.670;2022-08-19T09:39:37;27.13;;;20.55;;
27558;SDS011;15002;52.028;5.670;2022-08-19T09:42:05;33.88;;;23.83;;
27558;SDS011;15002;52.028;5.670;2022-08-19T09:44:37;32.55;;;23.20;;
27558;SDS011;15002;52.028;5.670;2022-08-19T09:47:03;33.65;;;22.80;;
27558;SDS011;15002;52.028;5.670;2022-08-19T09:49:29;25.98;;;18.95;;
27558;SDS011;15002;52.028;5.670;2022-08-19T09:51:56;32.22;;;21.98;;
27558;SDS011;15002;52.028;5.670;2022-08-19T09:54:22;28.30;;;18.70;;
27558;SDS011;15002;52.028;5.670;2022-08-19T09:56:48;31.13;;;20.90;;
27558;SDS011;15002;52.028;5.670;2022-08-19T09:59:14;31.83;;;22.63;;
27558;SDS011;15002;52.028;5.670;2022-08-19T10:01:41;29.27;;;21.20;;
27558;SDS011;15002;52.028;5.670;2022-08-19T10:04:07;22.85;;;17.00;;
27558;SDS011;15002;52.028;5.670;2022-08-19T10:06:36;24.08;;;18.35;;
27558;SDS011;15002;52.028;5.670;2022-08-19T10:09:04;22.60;;;17.10;;
27558;SDS011;15002;52.028;5.670;2022-08-19T10:11:32;21.98;;;16.17;;
27558;SDS011;15002;52.028;5.670;2022-08-19T10:14:00;21.30;;;15.90;;
27558;SDS011;15002;52.028;5.670;2022-08-19T10:16:26;24.83;;;17.98;;
27558;SDS011;15002;52.028;5.670;2022-08-19T10:18:53;29.27;;;20.88;;
27558;SDS011;15002;52.028;5.670;2022-08-19T10:21:23;24.23;;;19.25;;
27558;SDS011;15002;52.028;5.670;2022-08-19T10:23:52;29.67;;;19.45;;
27558;SDS011;15002;52.028;5.670;2022-08-19T10:26:27;27.55;;;20.23;;
27558;SDS011;15002;52.028;5.670;2022-08-19T10:28:54;27.45;;;18.95;;
27558;SDS011;15002;52.028;5.670;2022-08-19T10:31:22;27.13;;;20.40;;
27558;SDS011;15002;52.028;5.670;2022-08-19T10:33:49;27.77;;;19.35;;
27558;SDS011;15002;52.028;5.670;2022-08-19T10:36:17;28.52;;;19.90;;
27558;SDS011;15002;52.028;5.670;2022-08-19T10:38:51;24.85;;;19.13;;
27558;SDS011;15002;52.028;5.670;2022-08-19T10:41:19;36.50;;;22.05;;
27558;SDS011;15002;52.028;5.670;2022-08-19T10:43:53;30.48;;;19.65;;
27558;SDS011;15002;52.028;5.670;2022-08-19T10:46:21;29.83;;;19.48;;
27558;SDS011;15002;52.028;5.670;2022-08-19T10:48:49;25.30;;;19.17;;
27558;SDS011;15002;52.028;5.670;2022-08-19T10:51:15;26.45;;;17.88;;
27558;SDS011;15002;52.028;5.670;2022-08-19T10:54:00;25.27;;;19.63;;
27558;SDS011;15002;52.028;5.670;2022-08-19T10:56:27;24.20;;;18.85;;
27558;SDS011;15002;52.028;5.670;2022-08-19T10:59:12;25.85;;;16.33;;
27558;SDS011;15002;52.028;5.670;2022-08-19T11:01:39;24.60;;;17.75;;
27558;SDS011;15002;52.028;5.670;2022-08-19T11:04:06;22.58;;;18.02;;
27558;SDS011;15002;52.028;5.670;2022-08-19T11:06:35;23.08;;;17.10;;
27558;SDS011;15002;52.028;5.670;2022-08-19T11:09:01;26.33;;;18.10;;
27558;SDS011;15002;52.028;5.670;2022-08-19T11:11:27;26.48;;;17.52;;
27558;SDS011;15002;52.028;5.670;2022-08-19T11:13:53;25.80;;;19.27;;
27558;SDS011;15002;52.028;5.670;2022-08-19T11:16:20;26.52;;;18.60;;
27558;SDS011;15002;52.028;5.670;2022-08-19T11:18:52;21.35;;;16.15;;
27558;SDS011;15002;52.028;5.670;2022-08-19T11:23:50;24.83;;;17.10;;
27558;SDS011;15002;52.028;5.670;2022-08-19T11:26:18;23.50;;;16.30;;
27558;SDS011;15002;52.028;5.670;2022-08-19T11:28:45;25.60;;;18.10;;
27558;SDS011;15002;52.028;5.670;2022-08-19T11:31:11;27.10;;;20.83;;
27558;SDS011;15002;52.028;5.670;2022-08-19T11:33:39;26.02;;;20.92;;
27558;SDS011;15002;52.028;5.670;2022-08-19T11:36:05;23.15;;;17.23;;
27558;SDS011;15002;52.028;5.670;2022-08-19T11:38:32;21.13;;;14.88;;
27558;SDS011;15002;52.028;5.670;2022-08-19T11:41:00;27.40;;;18.83;;
27558;SDS011;15002;52.028;5.670;2022-08-19T11:43:28;23.40;;;15.70;;
27558;SDS011;15002;52.028;5.670;2022-08-19T11:45:55;27.30;;;18.70;;
27558;SDS011;15002;52.028;5.670;2022-08-19T11:48:20;30.45;;;21.25;;
27558;SDS011;15002;52.028;5.670;2022-08-19T11:50:47;25.67;;;20.35;;
27558;SDS011;15002;52.028;5.670;2022-08-19T11:53:14;28.13;;;20.23;;
27558;SDS011;15002;52.028;5.670;2022-08-19T11:55:41;28.60;;;20.67;;
27558;SDS011;15002;52.028;5.670;2022-08-19T11:58:07;34.35;;;23.60;;
27558;SDS011;15002;52.028;5.670;2022-08-19T12:00:33;37.33;;;24.20;;
27558;SDS011;15002;52.028;5.670;2022-08-19T12:03:01;34.72;;;23.60;;
27558;SDS011;15002;52.028;5.670;2022-08-19T12:05:27;32.65;;;23.75;;
27558;SDS011;15002;52.028;5.670;2022-08-19T12:07:53;31.25;;;24.45;;
27558;SDS011;15002;52.028;5.670;2022-08-19T12:10:19;33.22;;;23.08;;
27558;SDS011;15002;52.028;5.670;2022-08-19T12:12:46;35.33;;;24.08;;
27558;SDS011;15002;52.028;5.670;2022-08-19T12:15:12;33.00;;;24.08;;
27558;SDS011;15002;52.028;5.670;2022-08-19T12:17:39;31.15;;;23.52;;
27558;SDS011;15002;52.028;5.670;2022-08-19T12:20:07;38.13;;;24.08;;
27558;SDS011;15002;52.028;5.670;2022-08-19T12:22:34;29.58;;;22.23;;
27558;SDS011;15002;52.028;5.670;2022-08-19T12:25:02;35.53;;;23.63;;
27558;SDS011;15002;52.028;5.670;2022-08-19T12:27:28;27.55;;;20.85;;
27558;SDS011;15002;52.028;5.670;2022-08-19T12:29:53;28.52;;;22.60;;
27558;SDS011;15002;52.028;5.670;2022-08-19T12:32:19;35.47;;;24.23;;
27558;SDS011;15002;52.028;5.670;2022-08-19T12:34:46;28.50;;;22.42;;
27558;SDS011;15002;52.028;5.670;2022-08-19T12:37:12;33.08;;;22.55;;
27558;SDS011;15002;52.028;5.670;2022-08-19T12:39:39;55.67;;;26.85;;
27558;SDS011;15002;52.028;5.670;2022-08-19T12:42:06;32.72;;;24.48;;
27558;SDS011;15002;52.028;5.670;2022-08-19T12:44:33;32.78;;;24.27;;
27558;SDS011;15002;52.028;5.670;2022-08-19T12:47:00;33.72;;;24.85;;
27558;SDS011;15002;52.028;5.670;2022-08-19T12:49:28;26.55;;;20.70;;
27558;SDS011;15002;52.028;5.670;2022-08-19T12:51:54;28.85;;;23.88;;
27558;SDS011;15002;52.028;5.670;2022-08-19T12:54:20;31.85;;;24.83;;
27558;SDS011;15002;52.028;5.670;2022-08-19T12:56:46;29.15;;;23.67;;
27558;SDS011;15002;52.028;5.670;2022-08-19T12:59:11;31.20;;;23.98;;
27558;SDS011;15002;52.028;5.670;2022-08-19T13:01:39;36.42;;;25.08;;
27558;SDS011;15002;52.028;5.670;2022-08-19T13:04:06;31.08;;;24.20;;
27558;SDS011;15002;52.028;5.670;2022-08-19T13:06:31;30.40;;;22.77;;
27558;SDS011;15002;52.028;5.670;2022-08-19T13:08:57;34.67;;;25.00;;
27558;SDS011;15002;52.028;5.670;2022-08-19T13:11:23;28.27;;;23.55;;
27558;SDS011;15002;52.028;5.670;2022-08-19T13:13:51;29.23;;;24.42;;
27558;SDS011;15002;52.028;5.670;2022-08-19T13:16:19;31.00;;;23.65;;
27558;SDS011;15002;52.028;5.670;2022-08-19T13:18:46;30.83;;;24.17;;
27558;SDS011;15002;52.028;5.670;2022-08-19T13:21:12;30.00;;;25.27;;
27558;SDS011;15002;52.028;5.670;2022-08-19T13:23:39;29.15;;;23.55;;
27558;SDS011;15002;52.028;5.670;2022-08-19T13:26:06;30.27;;;22.63;;
27558;SDS011;15002;52.028;5.670;2022-08-19T13:28:33;31.98;;;22.65;;
27558;SDS011;15002;52.028;5.670;2022-08-19T13:31:18;26.00;;;21.42;;
27558;SDS011;15002;52.028;5.670;2022-08-19T13:34:04;27.13;;;22.70;;
27558;SDS011;15002;52.028;5.670;2022-08-19T13:36:30;35.42;;;23.48;;
27558;SDS011;15002;52.028;5.670;2022-08-19T13:38:56;34.05;;;26.90;;
27558;SDS011;15002;52.028;5.670;2022-08-19T13:41:22;33.55;;;25.92;;
27558;SDS011;15002;52.028;5.670;2022-08-19T13:43:48;31.77;;;25.27;;
27558;SDS011;15002;52.028;5.670;2022-08-19T13:46:14;31.85;;;25.30;;
27558;SDS011;15002;52.028;5.670;2022-08-19T13:48:40;34.80;;;27.40;;
27558;SDS011;15002;52.028;5.670;2022-08-19T13:51:07;31.33;;;26.65;;
27558;SDS011;15002;52.028;5.670;2022-08-19T13:53:37;40.03;;;28.60;;
27558;SDS011;15002;52.028;5.670;2022-08-19T13:56:11;33.22;;;27.92;;
27558;SDS011;15002;52.028;5.670;2022-08-19T13:58:39;34.08;;;27.02;;
27558;SDS011;15002;52.028;5.670;2022-08-19T14:01:05;35.65;;;25.75;;
27558;SDS011;15002;52.028;5.670;2022-08-19T14:03:32;38.67;;;27.35;;
27558;SDS011;15002;52.028;5.670;2022-08-19T14:05:59;34.17;;;26.45;;
27558;SDS011;15002;52.028;5.670;2022-08-19T14:08:25;35.75;;;27.60;;
27558;SDS011;15002;52.028;5.670;2022-08-19T14:10:52;36.75;;;26.58;;
27558;SDS011;15002;52.028;5.670;2022-08-19T14:13:19;35.78;;;25.42;;
27558;SDS011;15002;52.028;5.670;2022-08-19T14:15:47;33.28;;;24.77;;
27558;SDS011;15002;52.028;5.670;2022-08-19T14:18:13;36.33;;;26.80;;
27558;SDS011;15002;52.028;5.670;2022-08-19T14:20:39;33.45;;;26.48;;
27558;SDS011;15002;52.028;5.670;2022-08-19T14:23:05;35.75;;;26.52;;
27558;SDS011;15002;52.028;5.670;2022-08-19T14:25:31;33.78;;;26.02;;
27558;SDS011;15002;52.028;5.670;2022-08-19T14:27:57;34.95;;;26.50;;
27558;SDS011;15002;52.028;5.670;2022-08-19T14:30:24;29.60;;;21.35;;
27558;SDS011;15002;52.028;5.670;2022-08-19T14:32:57;29.98;;;22.58;;
27558;SDS011;15002;52.028;5.670;2022-08-19T14:35:24;31.35;;;23.40;;
27558;SDS011;15002;52.028;5.670;2022-08-19T14:37:53;24.75;;;20.67;;
27558;SDS011;15002;52.028;5.670;2022-08-19T14:40:21;20.48;;;14.35;;
27558;SDS011;15002;52.028;5.670;2022-08-19T14:42:55;10.02;;;8.45;;
27558;SDS011;15002;52.028;5.670;2022-08-19T14:45:24;9.73;;;6.82;;
27558;SDS011;15002;52.028;5.670;2022-08-19T14:47:51;9.70;;;7.40;;
27558;SDS011;15002;52.028;5.670;2022-08-19T14:50:18;7.38;;;6.15;;